Wildwood, FL (34785)

2:08 AM EST on November 26, 2014 (GMT -0500)
Village Of Lake Deaton | Change Station
CLOSE
Current Station
Personal Weather Station
Location: Wildwood, FL
Elevation: 82 ft
Nearby Weather Stations

Elev 82 ft 28.84 °N, 82.00 °W | Updated 3 seconds ago

Overcast
Overcast
69.5 °F
Feels Like 69.5 °F
N
0.0
Wind Variable Wind from North
Gusts 2.0 mph

Today
High -- | Low -- °F
--% Chance of Precip.
Yesterday
High -- | Low -- °F
Precip. -- in
7:00 AM 5:30 PM
Waxing Crescent, 17% visible
Pressure 29.86 in
Visibility 10.0 miles
Clouds Scattered Clouds 800 ft
Mostly Cloudy 8500 ft
Overcast 11000 ft
Dew Point 69 °F
Humidity 99%
Rainfall 0.00 in
Snow Depth Not available.
UV 0.0 out of 12
Pollen .60 out of 12
Air Quality Not available.
Flu Activity Not available.
METAR KLEE 260653Z AUTO 19007KT 10SM -RA SCT008 BKN085 OVC110 21/21 A2986 RMK AO2 RAE03B37 SLP110 P0001 T02110206

More Conditions Fewer Conditions

Pressure 29.86 in
Visibility 10.0 miles
Clouds Scattered Clouds 800 ft
Mostly Cloudy 8500 ft
Overcast 11000 ft
Dew Point 69 °F
Humidity 99%
Rainfall 0.00 in
Snow Depth Not available.
UV 0.0 out of 12
Pollen .60 out of 12
Air Quality Not available.
Flu Activity Not available.
METAR KLEE 260653Z AUTO 19007KT 10SM -RA SCT008 BKN085 OVC110 21/21 A2986 RMK AO2 RAE03B37 SLP110 P0001 T02110206

More Conditions Fewer Conditions

10-Day Weather Forecast

Almanac

Astronomy

Nov. 26, 2014 Rise Set
Actual Time
Civil Twilight
Nautical Twilight
Astronomical Twilight
Moon
Length of Visible Light
Length of Day
Tomorrow will be .
, % of the Moon is Illuminated

Today's Extremes

State Highs State Lows

Community

WunderPhotos

Upload Photos

1,773,694 photos uploaded!

WunderBlogs® & News

Nearby

Air Quality

  Air Quality AQ Index Pollutant
Not available.

Snow Depth

Station Depth Elevation

Earthquake Activity

City Distance Mag. Time & Date
Minimum magnitude displayed is 2.5.

Coastal Water Temperatures

Place Temperature

Nearby Weather Stations